Time;durP1;ratioP1;P1;durP2;ratioP2;P2;SDS_P1;SDS_P2;PMS_P1;PMS_P2;Temp;Humidity;BMP_temperature;BMP_pressure;BME280_temperature;BME280_humidity;BME280_pressure;Samples;Min_cycle;Max_cycle;Signal;HPM_P1;HPM_P2
2021/12/03 00:00:17;;;;;;;5.00;2.20;;;;;;;;;;5026300;28;20037;-56
2021/12/03 00:02:43;;;;;;;9.35;2.75;;;;;;;;;;5037775;28;20594;-55
2021/12/03 00:05:10;;;;;;;13.32;2.90;;;;;;;;;;5029080;28;20052;-53
2021/12/03 00:07:40;;;;;;;4.45;1.88;;;;;;;;;;5019602;28;20100;-55
2021/12/03 00:10:08;;;;;;;4.43;1.95;;;;;;;;;;5016749;28;20042;-55
2021/12/03 00:12:34;;;;;;;3.00;1.50;;;;;;;;;;5029982;28;20045;-53
2021/12/03 00:15:02;;;;;;;6.28;1.90;;;;;;;;;;5037919;28;20069;-53
2021/12/03 00:17:29;;;;;;;6.10;1.73;;;;;;;;;;5042994;28;20482;-51
2021/12/03 00:19:55;;;;;;;6.97;2.30;;;;;;;;;;5040509;28;20045;-52
2021/12/03 00:22:22;;;;;;;7.40;2.20;;;;;;;;;;5042300;28;20049;-54
2021/12/03 00:24:48;;;;;;;6.85;1.70;;;;;;;;;;5043923;28;20034;-51
2021/12/03 00:27:15;;;;;;;6.22;2.00;;;;;;;;;;5021100;28;20147;-54
2021/12/03 00:29:41;;;;;;;6.03;1.80;;;;;;;;;;5023770;28;20096;-55
2021/12/03 00:32:09;;;;;;;6.50;1.80;;;;;;;;;;5034108;28;20041;-55
2021/12/03 00:34:36;;;;;;;5.65;2.10;;;;;;;;;;5043448;28;20040;-49
2021/12/03 00:37:03;;;;;;;6.22;1.83;;;;;;;;;;5040618;28;20049;-56
2021/12/03 00:39:29;;;;;;;6.28;1.92;;;;;;;;;;5041543;28;20045;-52
2021/12/03 00:41:59;;;;;;;6.38;2.17;;;;;;;;;;5028028;28;20046;-52
2021/12/03 00:44:25;;;;;;;5.80;2.05;;;;;;;;;;5022835;28;20038;-49
2021/12/03 00:46:53;;;;;;;4.68;1.63;;;;;;;;;;5020267;28;20037;-56
2021/12/03 00:49:22;;;;;;;10.77;2.00;;;;;;;;;;5022506;28;20026;-53
2021/12/03 00:51:48;;;;;;;6.97;2.10;;;;;;;;;;5018323;28;20048;-54
2021/12/03 00:54:15;;;;;;;8.15;2.10;;;;;;;;;;5023110;28;20048;-52
2021/12/03 00:56:44;;;;;;;6.88;2.00;;;;;;;;;;5027759;28;20041;-52
2021/12/03 00:59:10;;;;;;;;;;;;;;;;;;5065108;28;20041;-52
2021/12/03 01:01:38;;;;;;;8.13;2.30;;;;;;;;;;5057341;28;19917;-54
2021/12/03 01:04:05;;;;;;;10.18;2.58;;;;;;;;;;5020738;28;20045;-56
2021/12/03 01:06:33;;;;;;;6.32;2.28;;;;;;;;;;5022679;28;20056;-50
2021/12/03 01:08:59;;;;;;;5.20;1.83;;;;;;;;;;5019013;28;20049;-53
2021/12/03 01:11:26;;;;;;;5.28;1.52;;;;;;;;;;5021625;28;20053;-50
2021/12/03 01:13:53;;;;;;;5.90;2.22;;;;;;;;;;5019356;28;20507;-53
2021/12/03 01:16:20;;;;;;;4.82;2.13;;;;;;;;;;5021181;28;20045;-52
2021/12/03 01:18:46;;;;;;;7.22;2.38;;;;;;;;;;5018029;28;20046;-53
2021/12/03 01:21:14;;;;;;;8.18;2.33;;;;;;;;;;5021449;28;20045;-49
2021/12/03 01:23:42;;;;;;;6.13;2.15;;;;;;;;;;5018651;28;20046;-54
2021/12/03 01:26:10;;;;;;;7.63;2.47;;;;;;;;;;5021001;28;20042;-55
2021/12/03 01:28:36;;;;;;;4.60;1.73;;;;;;;;;;5017429;28;20048;-53
2021/12/03 01:31:03;;;;;;;5.68;2.20;;;;;;;;;;5021529;28;20038;-52
2021/12/03 01:33:29;;;;;;;10.25;2.55;;;;;;;;;;5024820;28;20052;-52
2021/12/03 01:35:56;;;;;;;8.98;2.85;;;;;;;;;;5039753;28;20049;-53
2021/12/03 01:38:23;;;;;;;10.30;2.70;;;;;;;;;;5034304;28;20417;-54
2021/12/03 01:40:51;;;;;;;5.28;2.42;;;;;;;;;;5020641;28;20052;-52
2021/12/03 01:43:22;;;;;;;5.90;2.10;;;;;;;;;;5020231;28;20045;-53
2021/12/03 01:45:53;;;;;;;5.63;2.33;;;;;;;;;;5040669;28;20288;-54
2021/12/03 01:48:20;;;;;;;5.32;2.33;;;;;;;;;;5022905;28;20045;-52
2021/12/03 01:50:46;;;;;;;4.07;2.08;;;;;;;;;;5040352;28;20041;-54
2021/12/03 01:53:15;;;;;;;7.25;2.33;;;;;;;;;;5022885;28;20034;-53
2021/12/03 01:55:43;;;;;;;5.40;2.28;;;;;;;;;;5035118;28;20602;-54
2021/12/03 01:58:11;;;;;;;7.93;2.45;;;;;;;;;;5039487;28;20052;-50
2021/12/03 02:00:39;;;;;;;6.60;2.40;;;;;;;;;;5035447;28;20049;-56
2021/12/03 02:03:06;;;;;;;5.10;2.88;;;;;;;;;;5039922;28;20045;-50
2021/12/03 02:05:33;;;;;;;4.60;2.30;;;;;;;;;;5037389;28;20126;-55
2021/12/03 02:07:59;;;;;;;6.07;2.58;;;;;;;;;;5041520;28;20517;-53
2021/12/03 02:10:26;;;;;;;6.93;3.00;;;;;;;;;;5025623;28;20045;-51
2021/12/03 02:12:53;;;;;;;8.27;3.05;;;;;;;;;;5032537;28;20142;-55
2021/12/03 02:15:21;;;;;;;5.93;2.78;;;;;;;;;;5029916;28;20062;-53
2021/12/03 02:17:47;;;;;;;6.23;2.60;;;;;;;;;;5022250;28;20033;-51
2021/12/03 02:20:14;;;;;;;8.68;2.45;;;;;;;;;;5024579;28;20053;-50
2021/12/03 02:22:42;;;;;;;6.20;2.33;;;;;;;;;;5024173;28;20152;-56
2021/12/03 02:25:10;;;;;;;8.45;2.85;;;;;;;;;;5024466;28;20029;-56
2021/12/03 02:27:38;;;;;;;5.18;2.58;;;;;;;;;;5041711;28;20045;-50
2021/12/03 02:30:06;;;;;;;6.13;2.37;;;;;;;;;;5040209;28;20068;-56
2021/12/03 02:32:32;;;;;;;5.50;2.60;;;;;;;;;;5041900;28;20053;-52
2021/12/03 02:34:58;;;;;;;6.18;2.50;;;;;;;;;;5022436;28;20056;-52
2021/12/03 02:37:25;;;;;;;7.15;2.67;;;;;;;;;;5018666;28;20037;-52
2021/12/03 02:39:53;;;;;;;6.75;2.70;;;;;;;;;;5020933;28;20088;-51
2021/12/03 02:42:20;;;;;;;7.70;2.88;;;;;;;;;;5017686;28;20049;-53
2021/12/03 02:44:46;;;;;;;9.55;2.92;;;;;;;;;;5021310;28;20049;-54
2021/12/03 02:47:13;;;;;;;7.85;2.47;;;;;;;;;;5016673;28;20062;-54
2021/12/03 02:49:40;;;;;;;5.88;2.30;;;;;;;;;;5021227;28;20056;-55
2021/12/03 02:52:08;;;;;;;5.93;2.85;;;;;;;;;;5028982;28;20344;-52
2021/12/03 02:54:34;;;;;;;9.13;3.03;;;;;;;;;;5040968;28;20053;-55
2021/12/03 02:57:04;;;;;;;7.72;2.83;;;;;;;;;;5036926;28;20129;-52
2021/12/03 02:59:32;;;;;;;5.65;2.40;;;;;;;;;;5040737;28;20041;-52
2021/12/03 03:01:58;;;;;;;5.28;2.20;;;;;;;;;;5029611;28;20508;-55
2021/12/03 03:04:25;;;;;;;4.50;2.20;;;;;;;;;;5021898;28;20057;-54
2021/12/03 03:06:51;;;;;;;12.13;2.33;;;;;;;;;;5023845;28;20044;-54
2021/12/03 03:09:18;;;;;;;7.53;2.25;;;;;;;;;;5040062;28;20041;-54
2021/12/03 03:11:45;;;;;;;6.28;2.88;;;;;;;;;;5037580;28;20386;-54
2021/12/03 03:14:13;;;;;;;6.95;2.65;;;;;;;;;;5043273;28;20048;-55
2021/12/03 03:16:41;;;;;;;5.80;2.55;;;;;;;;;;5041414;28;20045;-56
2021/12/03 03:19:11;;;;;;;5.57;2.60;;;;;;;;;;5040049;28;20037;-55
2021/12/03 03:21:38;;;;;;;8.52;2.63;;;;;;;;;;5040087;28;20492;-55
2021/12/03 03:24:07;;;;;;;6.78;2.83;;;;;;;;;;5018280;28;20042;-55
2021/12/03 03:26:34;;;;;;;7.20;3.00;;;;;;;;;;5020739;28;20476;-53
2021/12/03 03:29:01;;;;;;;7.35;2.53;;;;;;;;;;5032048;28;20045;-55
2021/12/03 03:31:28;;;;;;;7.72;2.92;;;;;;;;;;5041606;28;20100;-55
2021/12/03 03:33:55;;;;;;;9.13;3.03;;;;;;;;;;5027659;28;20111;-52
2021/12/03 03:36:23;;;;;;;8.10;2.92;;;;;;;;;;5019378;28;20038;-53
2021/12/03 03:38:49;;;;;;;6.25;2.97;;;;;;;;;;5017605;28;20063;-54
2021/12/03 03:41:15;;;;;;;8.05;3.40;;;;;;;;;;5020800;28;20419;-54
2021/12/03 03:43:42;;;;;;;6.47;2.90;;;;;;;;;;5026872;28;20095;-54
2021/12/03 03:46:09;;;;;;;10.15;3.63;;;;;;;;;;5040803;28;20041;-53
2021/12/03 03:48:40;;;;;;;9.98;3.95;;;;;;;;;;5043353;28;20048;-51
2021/12/03 03:51:06;;;;;;;7.82;3.30;;;;;;;;;;5047455;28;20053;-55
2021/12/03 03:53:32;;;;;;;8.85;3.35;;;;;;;;;;5042476;28;20098;-54
2021/12/03 03:56:00;;;;;;;9.05;3.25;;;;;;;;;;5046124;28;20044;-53
2021/12/03 03:58:27;;;;;;;11.80;3.92;;;;;;;;;;5041334;28;20498;-55
2021/12/03 04:00:54;;;;;;;8.80;3.75;;;;;;;;;;5044826;28;20102;-51
2021/12/03 04:03:20;;;;;;;14.15;3.65;;;;;;;;;;5047775;28;20412;-52
2021/12/03 04:05:48;;;;;;;8.48;3.88;;;;;;;;;;5042203;28;20041;-55
2021/12/03 04:08:15;;;;;;;11.15;4.07;;;;;;;;;;5047262;28;20033;-54
2021/12/03 04:10:41;;;;;;;9.73;3.45;;;;;;;;;;5042317;28;20076;-51
2021/12/03 04:13:08;;;;;;;9.30;4.20;;;;;;;;;;5032342;28;20060;-51
2021/12/03 04:15:34;;;;;;;12.20;3.70;;;;;;;;;;5023794;28;20143;-54
2021/12/03 04:18:01;;;;;;;8.48;3.60;;;;;;;;;;5026297;28;20127;-56
2021/12/03 04:20:27;;;;;;;10.23;3.33;;;;;;;;;;5033777;28;20045;-54
2021/12/03 04:22:55;;;;;;;12.80;3.72;;;;;;;;;;5045616;28;20048;-55
2021/12/03 04:25:22;;;;;;;8.02;3.40;;;;;;;;;;5040912;28;20152;-56
2021/12/03 04:27:49;;;;;;;8.77;3.60;;;;;;;;;;5045328;28;20045;-54
2021/12/03 04:30:16;;;;;;;9.38;3.85;;;;;;;;;;5035867;28;20131;-56
2021/12/03 04:32:44;;;;;;;11.57;4.50;;;;;;;;;;5022747;28;20037;-55
2021/12/03 04:35:10;;;;;;;13.00;4.80;;;;;;;;;;5024149;28;20041;-54
2021/12/03 04:37:37;;;;;;;11.77;4.93;;;;;;;;;;5044289;28;20051;-56
2021/12/03 04:40:07;;;;;;;10.82;5.15;;;;;;;;;;5041126;28;20041;-56
2021/12/03 04:42:33;;;;;;;10.70;5.18;;;;;;;;;;5045346;28;20045;-52
2021/12/03 04:45:00;;;;;;;15.88;6.22;;;;;;;;;;5046286;28;20045;-54
2021/12/03 04:47:26;;;;;;;15.00;5.38;;;;;;;;;;5043370;28;20105;-55
2021/12/03 04:49:53;;;;;;;18.27;6.63;;;;;;;;;;5043715;28;20407;-54
2021/12/03 04:52:19;;;;;;;14.88;6.30;;;;;;;;;;5024646;28;20433;-55
2021/12/03 04:54:46;;;;;;;14.88;6.85;;;;;;;;;;5026501;28;20039;-56
2021/12/03 04:57:14;;;;;;;12.82;5.13;;;;;;;;;;5021721;28;20076;-54
2021/12/03 04:59:41;;;;;;;13.02;4.93;;;;;;;;;;5022217;28;20046;-56
2021/12/03 05:02:07;;;;;;;23.20;8.70;;;;;;;;;;5017769;28;20051;-56
2021/12/03 05:04:37;;;;;;;17.90;6.55;;;;;;;;;;5024326;28;20042;-56
2021/12/03 05:07:16;;;;;;;18.40;6.88;;;;;;;;;;5029494;28;20045;-52
2021/12/03 05:09:43;;;;;;;23.08;7.03;;;;;;;;;;5042596;28;20056;-52
2021/12/03 05:12:09;;;;;;;25.33;8.30;;;;;;;;;;5036969;28;20041;-55
2021/12/03 05:14:37;;;;;;;27.40;10.15;;;;;;;;;;5044832;28;20095;-54
2021/12/03 05:17:05;;;;;;;23.33;9.10;;;;;;;;;;5039596;28;20056;-56
2021/12/03 05:19:31;;;;;;;17.35;6.82;;;;;;;;;;5040722;28;20045;-53
2021/12/03 05:21:58;;;;;;;26.83;7.88;;;;;;;;;;5037810;28;22509;-52
2021/12/03 05:24:24;;;;;;;20.52;8.15;;;;;;;;;;5041705;28;20042;-55
2021/12/03 05:26:51;;;;;;;25.25;7.95;;;;;;;;;;5038929;28;20086;-56
2021/12/03 05:29:18;;;;;;;29.58;8.00;;;;;;;;;;5041111;28;20033;-53
2021/12/03 05:31:46;;;;;;;25.75;8.60;;;;;;;;;;5040484;28;20049;-54
2021/12/03 05:34:15;;;;;;;26.87;9.27;;;;;;;;;;5026768;28;20045;-54
2021/12/03 05:36:42;;;;;;;26.65;9.18;;;;;;;;;;5021003;28;20042;-51
2021/12/03 05:39:09;;;;;;;26.02;8.82;;;;;;;;;;5021887;28;20037;-55
2021/12/03 05:41:36;;;;;;;22.90;8.68;;;;;;;;;;5023211;28;20046;-55
2021/12/03 05:44:02;;;;;;;24.73;8.77;;;;;;;;;;5017282;28;20042;-57
2021/12/03 05:46:29;;;;;;;17.90;6.60;;;;;;;;;;5021595;28;20061;-55
2021/12/03 05:48:57;;;;;;;22.08;7.47;;;;;;;;;;5018857;28;20038;-55
2021/12/03 05:51:26;;;;;;;31.63;8.82;;;;;;;;;;5024092;28;20037;-55
2021/12/03 05:53:52;;;;;;;20.42;6.60;;;;;;;;;;5028361;28;20049;-54
2021/12/03 05:56:19;;;;;;;22.10;6.85;;;;;;;;;;5019267;28;20033;-54
2021/12/03 05:58:45;;;;;;;21.13;7.35;;;;;;;;;;5017009;28;20036;-54
2021/12/03 06:01:12;;;;;;;21.73;7.10;;;;;;;;;;5022815;28;20119;-53
2021/12/03 06:03:38;;;;;;;18.27;7.32;;;;;;;;;;5031471;28;20041;-54
2021/12/03 06:06:07;;;;;;;18.98;6.10;;;;;;;;;;5031541;28;20059;-55
2021/12/03 06:08:33;;;;;;;17.42;6.60;;;;;;;;;;5029390;28;20057;-55
2021/12/03 06:11:00;;;;;;;18.08;6.47;;;;;;;;;;5030467;28;20038;-56
2021/12/03 06:13:26;;;;;;;18.17;6.80;;;;;;;;;;5031691;28;20053;-55
2021/12/03 06:15:54;;;;;;;18.52;6.38;;;;;;;;;;5029559;28;20052;-56
2021/12/03 06:18:20;;;;;;;22.13;8.10;;;;;;;;;;5031491;28;20048;-56
2021/12/03 06:20:47;;;;;;;21.13;6.80;;;;;;;;;;5027795;28;20041;-56
2021/12/03 06:23:15;;;;;;;22.38;6.57;;;;;;;;;;5030753;28;20036;-54
2021/12/03 06:25:42;;;;;;;22.92;7.60;;;;;;;;;;5027564;28;20111;-54
2021/12/03 06:28:09;;;;;;;30.02;8.90;;;;;;;;;;5035049;28;20057;-56
2021/12/03 06:30:35;;;;;;;21.40;7.45;;;;;;;;;;5027129;28;20046;-52
2021/12/03 06:33:02;;;;;;;25.88;10.48;;;;;;;;;;5032027;28;20172;-53
2021/12/03 06:35:35;;;;;;;18.48;7.35;;;;;;;;;;5025124;28;20070;-55
2021/12/03 06:38:02;;;;;;;25.98;7.97;;;;;;;;;;5036563;28;20111;-53
2021/12/03 06:40:30;;;;;;;28.52;7.90;;;;;;;;;;5029291;28;20033;-54
2021/12/03 06:42:56;;;;;;;21.83;7.63;;;;;;;;;;5032068;28;20147;-52
2021/12/03 06:45:23;;;;;;;24.35;7.63;;;;;;;;;;5026572;28;20046;-55
2021/12/03 06:47:50;;;;;;;27.35;7.95;;;;;;;;;;5032342;28;20037;-54
2021/12/03 06:50:18;;;;;;;33.75;6.25;;;;;;;;;;5029164;28;20037;-53
2021/12/03 06:52:48;;;;;;;29.58;6.95;;;;;;;;;;5030216;28;20042;-53
2021/12/03 06:55:15;;;;;;;22.02;7.18;;;;;;;;;;5026812;28;20511;-53
2021/12/03 06:57:44;;;;;;;29.20;8.50;;;;;;;;;;5030367;28;20037;-54
2021/12/03 07:00:12;;;;;;;23.27;7.05;;;;;;;;;;5034342;28;20049;-55
2021/12/03 07:02:44;;;;;;;22.00;6.10;;;;;;;;;;5015904;28;20045;-55
2021/12/03 07:05:12;;;;;;;20.25;6.55;;;;;;;;;;5017889;28;20041;-53
2021/12/03 07:07:39;;;;;;;13.77;5.03;;;;;;;;;;5032168;28;20115;-54
2021/12/03 07:10:06;;;;;;;15.95;4.97;;;;;;;;;;5040731;28;20052;-54
2021/12/03 07:12:32;;;;;;;17.65;5.60;;;;;;;;;;5027825;28;20479;-56
2021/12/03 07:15:00;;;;;;;19.48;5.57;;;;;;;;;;5002654;28;20045;-54
2021/12/03 07:17:30;;;;;;;11.17;4.47;;;;;;;;;;5028147;28;20045;-55
2021/12/03 07:19:58;;;;;;;18.00;4.75;;;;;;;;;;5039007;28;20344;-53
2021/12/03 07:22:24;;;;;;;14.88;4.57;;;;;;;;;;5028394;28;20029;-55
2021/12/03 07:24:50;;;;;;;21.23;4.88;;;;;;;;;;5039668;28;20041;-55
2021/12/03 07:27:17;;;;;;;15.23;4.25;;;;;;;;;;5029654;28;20053;-56
2021/12/03 07:29:47;;;;;;;15.93;4.20;;;;;;;;;;5020439;28;20029;-54
2021/12/03 07:32:14;;;;;;;16.75;4.28;;;;;;;;;;5021898;28;20053;-56
2021/12/03 07:34:41;;;;;;;13.37;3.60;;;;;;;;;;5024130;28;20052;-56
2021/12/03 07:37:08;;;;;;;11.63;2.95;;;;;;;;;;5019287;28;20077;-56
2021/12/03 07:39:34;;;;;;;14.27;3.28;;;;;;;;;;5039802;28;20407;-56
2021/12/03 07:42:01;;;;;;;12.00;3.95;;;;;;;;;;5037844;28;20048;-55
2021/12/03 07:44:28;;;;;;;10.95;3.20;;;;;;;;;;5018554;28;20135;-55
2021/12/03 07:46:54;;;;;;;13.05;3.42;;;;;;;;;;5022104;28;20323;-53
2021/12/03 07:49:23;;;;;;;12.18;3.50;;;;;;;;;;5019854;28;20041;-51
2021/12/03 07:51:50;;;;;;;12.32;3.17;;;;;;;;;;5020182;28;20033;-56
2021/12/03 07:54:17;;;;;;;14.88;4.03;;;;;;;;;;5031773;28;20103;-55
2021/12/03 07:56:44;;;;;;;13.23;3.45;;;;;;;;;;5039437;28;20037;-51
2021/12/03 07:59:11;;;;;;;18.45;4.05;;;;;;;;;;5038700;28;20045;-53
2021/12/03 08:01:37;;;;;;;17.50;3.55;;;;;;;;;;5042245;28;20042;-55
2021/12/03 08:04:04;;;;;;;14.40;2.83;;;;;;;;;;5029292;28;20049;-54
2021/12/03 08:06:32;;;;;;;16.95;3.17;;;;;;;;;;5019832;28;20410;-54
2021/12/03 08:08:59;;;;;;;14.25;3.33;;;;;;;;;;5015649;28;20164;-53
2021/12/03 08:11:25;;;;;;;14.15;3.05;;;;;;;;;;5019819;28;20127;-55
2021/12/03 08:13:52;;;;;;;19.65;3.10;;;;;;;;;;5034857;28;20049;-55
2021/12/03 08:16:19;;;;;;;12.57;3.20;;;;;;;;;;5039427;28;20079;-51
2021/12/03 08:18:46;;;;;;;14.03;3.83;;;;;;;;;;5036504;28;22012;-56
2021/12/03 08:21:12;;;;;;;14.35;2.78;;;;;;;;;;5037986;28;20057;-56
2021/12/03 08:23:40;;;;;;;16.33;3.25;;;;;;;;;;5035987;28;20029;-52
2021/12/03 08:26:07;;;;;;;17.43;3.60;;;;;;;;;;5039449;28;20052;-51
2021/12/03 08:28:34;;;;;;;8.05;2.95;;;;;;;;;;5038064;28;20033;-55
2021/12/03 08:31:01;;;;;;;10.05;2.85;;;;;;;;;;5034511;28;20050;-53
2021/12/03 08:33:27;;;;;;;15.45;3.00;;;;;;;;;;5033350;28;20127;-53
2021/12/03 08:35:54;;;;;;;15.25;2.92;;;;;;;;;;5019371;28;20073;-53
2021/12/03 08:38:21;;;;;;;11.15;2.78;;;;;;;;;;5021436;28;20042;-52
2021/12/03 08:40:48;;;;;;;10.07;2.67;;;;;;;;;;5029218;28;20072;-57
2021/12/03 08:43:15;;;;;;;11.90;2.37;;;;;;;;;;5042501;28;20412;-56
2021/12/03 08:45:47;;;;;;;9.43;2.55;;;;;;;;;;5027681;28;20624;-56
2021/12/03 08:48:13;;;;;;;11.45;2.80;;;;;;;;;;5023660;28;20041;-53
2021/12/03 08:50:48;;;;;;;9.65;2.50;;;;;;;;;;5026214;28;20041;-54
2021/12/03 08:56:02;;;;;;;6.72;1.90;;;;;;;;;;5037323;28;20106;-52
2021/12/03 08:58:28;;;;;;;6.07;2.00;;;;;;;;;;5042989;28;20034;-58
2021/12/03 09:00:55;;;;;;;14.52;2.67;;;;;;;;;;5030734;28;20042;-53
2021/12/03 09:03:22;;;;;;;10.55;2.38;;;;;;;;;;5021276;28;20097;-57
2021/12/03 09:05:51;;;;;;;9.32;2.28;;;;;;;;;;5016379;28;20041;-52
2021/12/03 09:08:17;;;;;;;17.50;2.33;;;;;;;;;;5020396;28;20046;-55
2021/12/03 09:10:44;;;;;;;11.98;2.88;;;;;;;;;;5018889;28;20499;-54
2021/12/03 09:13:12;;;;;;;7.75;2.47;;;;;;;;;;5040663;28;20057;-51
2021/12/03 09:15:41;;;;;;;11.70;2.23;;;;;;;;;;5040455;28;20041;-55
2021/12/03 09:18:17;;;;;;;9.13;2.35;;;;;;;;;;5039141;28;20155;-54
2021/12/03 09:20:55;;;;;;;8.95;1.98;;;;;;;;;;5040521;28;20045;-55
2021/12/03 09:23:29;;;;;;;5.55;1.77;;;;;;;;;;5022692;28;20052;-55
2021/12/03 09:26:05;;;;;;;11.75;2.38;;;;;;;;;;5025833;28;20601;-53
2021/12/03 09:28:34;;;;;;;12.80;2.17;;;;;;;;;;5016414;28;20057;-57
2021/12/03 09:31:00;;;;;;;;;;;;;;;;;;5022938;28;20062;-54
2021/12/03 09:33:28;;;;;;;5.88;1.25;;;;;;;;;;5033357;28;19940;-53
2021/12/03 09:35:59;;;;;;;16.03;2.17;;;;;;;;;;5040628;28;20423;-53
2021/12/03 09:38:30;;;;;;;10.05;2.20;;;;;;;;;;5037430;28;20142;-51
2021/12/03 09:40:58;;;;;;;12.15;2.15;;;;;;;;;;5040507;28;20033;-55
2021/12/03 09:43:25;;;;;;;9.43;2.15;;;;;;;;;;5051176;28;20482;-56
2021/12/03 09:45:59;;;;;;;8.90;2.08;;;;;;;;;;5060659;28;20032;-53
2021/12/03 09:48:39;;;;;;;9.32;2.22;;;;;;;;;;5031002;28;20511;-52
2021/12/03 09:51:08;;;;;;;10.20;2.20;;;;;;;;;;5030274;28;20037;-53
2021/12/03 09:53:59;;;;;;;10.80;2.05;;;;;;;;;;5027330;28;20057;-51
2021/12/03 09:56:28;;;;;;;11.55;2.17;;;;;;;;;;5001705;28;20041;-54
2021/12/03 10:01:45;;;;;;;5.55;1.65;;;;;;;;;;5036137;28;20097;-55
2021/12/03 10:12:30;;;;;;;5.82;1.98;;;;;;;;;;5029595;28;20045;-52
2021/12/03 10:15:06;;;;;;;6.30;1.75;;;;;;;;;;5017324;28;20037;-53
2021/12/03 10:17:47;;;;;;;7.57;1.88;;;;;;;;;;5020747;28;20052;-50
2021/12/03 10:20:21;;;;;;;10.18;1.85;;;;;;;;;;5034306;28;20091;-54
2021/12/03 10:26:07;;;;;;;6.50;1.42;;;;;;;;;;5034737;28;20048;-51
2021/12/03 10:28:44;;;;;;;7.88;2.10;;;;;;;;;;5036275;28;20242;-54
2021/12/03 10:37:02;;;;;;;8.00;1.60;;;;;;;;;;4997002;28;20081;-53
2021/12/03 10:39:42;;;;;;;9.50;1.67;;;;;;;;;;5031302;28;20045;-53
2021/12/03 10:42:21;;;;;;;7.85;1.60;;;;;;;;;;5020542;28;20033;-56
2021/12/03 10:45:17;;;;;;;10.40;1.90;;;;;;;;;;5018513;28;20049;-55
2021/12/03 10:47:55;;;;;;;10.02;2.13;;;;;;;;;;5019156;28;20112;-55
2021/12/03 10:50:29;;;;;;;8.35;1.77;;;;;;;;;;5029197;28;20044;-54
2021/12/03 10:53:08;;;;;;;9.48;2.05;;;;;;;;;;5043206;28;20129;-53
2021/12/03 11:13:11;;;;;;;8.32;2.05;;;;;;;;;;4975700;28;20046;-53
2021/12/03 11:18:54;;;;;;;10.32;2.00;;;;;;;;;;5031631;28;20073;-54
2021/12/03 11:38:12;;;;;;;10.18;1.88;;;;;;;;;;5016428;28;20045;-55
2021/12/03 11:47:14;;;;;;;10.70;1.75;;;;;;;;;;5002119;28;20061;-55
2021/12/03 14:02:18;;;;;;;3.67;1.67;;;;;;;;;;5097162;28;20043;-50
2021/12/03 14:05:08;;;;;;;8.80;2.08;;;;;;;;;;5098559;28;20040;-51
2021/12/03 14:07:49;;;;;;;3.67;1.60;;;;;;;;;;5079160;28;20050;-55
2021/12/03 14:41:31;;;;;;;7.70;1.58;;;;;;;;;;5073858;28;20135;-56
2021/12/03 14:44:07;;;;;;;3.45;1.45;;;;;;;;;;5099021;28;20089;-52
2021/12/03 14:46:50;;;;;;;4.70;1.60;;;;;;;;;;5102950;27;20063;-55
2021/12/03 14:52:17;;;;;;;6.18;1.80;;;;;;;;;;5099883;28;20076;-53
2021/12/03 14:54:52;;;;;;;5.07;1.90;;;;;;;;;;5098792;28;20055;-53
2021/12/03 14:57:29;;;;;;;4.28;1.63;;;;;;;;;;5101560;28;20118;-53
2021/12/03 15:00:04;;;;;;;9.00;1.75;;;;;;;;;;5099047;28;20040;-51
2021/12/03 15:02:42;;;;;;;6.70;1.80;;;;;;;;;;5100583;28;20044;-53
2021/12/03 15:05:31;;;;;;;5.18;1.95;;;;;;;;;;5097646;28;20051;-51
2021/12/03 15:08:01;;;;;;;4.45;1.60;;;;;;;;;;5101658;28;20055;-56
2021/12/03 15:10:37;;;;;;;4.93;1.55;;;;;;;;;;5097436;28;20070;-55
2021/12/03 15:13:15;;;;;;;4.18;1.48;;;;;;;;;;5089548;28;20068;-51
2021/12/03 15:18:51;;;;;;;4.35;1.75;;;;;;;;;;5080937;28;20048;-55
2021/12/03 15:24:42;;;;;;;4.97;1.60;;;;;;;;;;5102310;27;20134;-54
2021/12/03 15:32:41;;;;;;;4.35;1.65;;;;;;;;;;5050001;28;20037;-54
2021/12/03 15:35:11;;;;;;;5.50;1.40;;;;;;;;;;5073091;28;20041;-52
2021/12/03 15:38:04;;;;;;;3.95;1.50;;;;;;;;;;5075418;28;20080;-53
2021/12/03 15:40:53;;;;;;;4.28;1.35;;;;;;;;;;5058175;28;20044;-54
2021/12/03 15:55:05;;;;;;;3.40;1.63;;;;;;;;;;5054742;28;20048;-50
2021/12/03 16:06:15;;;;;;;6.40;1.85;;;;;;;;;;5053962;28;20040;-52
2021/12/03 16:08:43;;;;;;;3.70;1.58;;;;;;;;;;5052375;28;20051;-55
2021/12/03 16:11:20;;;;;;;3.72;1.60;;;;;;;;;;5056616;28;20415;-56
2021/12/03 16:13:57;;;;;;;6.25;1.85;;;;;;;;;;5050895;28;20033;-56
2021/12/03 16:16:52;;;;;;;6.00;1.58;;;;;;;;;;5077554;28;20115;-54
2021/12/03 16:19:34;;;;;;;7.38;1.85;;;;;;;;;;5048957;28;20479;-56
2021/12/03 16:22:11;;;;;;;5.65;2.05;;;;;;;;;;5072853;28;20063;-51
2021/12/03 16:43:53;;;;;;;3.67;1.52;;;;;;;;;;5036621;28;20041;-50
2021/12/03 16:46:29;;;;;;;3.00;1.70;;;;;;;;;;5041226;28;20109;-51
2021/12/03 16:51:47;;;;;;;3.58;1.80;;;;;;;;;;5058908;28;20152;-50
2021/12/03 16:54:16;;;;;;;6.55;2.20;;;;;;;;;;5036947;28;20085;-57
2021/12/03 16:56:46;;;;;;;3.72;1.70;;;;;;;;;;5041671;28;20048;-56
2021/12/03 16:59:12;;;;;;;3.88;1.75;;;;;;;;;;5037355;28;20037;-54
2021/12/03 17:01:43;;;;;;;3.25;1.58;;;;;;;;;;5059221;28;20048;-53
2021/12/03 17:15:20;;;;;;;3.95;1.70;;;;;;;;;;5050059;28;20033;-56
2021/12/03 17:47:53;;;;;;;3.78;1.95;;;;;;;;;;5031105;28;20041;-52
2021/12/03 17:50:40;;;;;;;3.90;1.92;;;;;;;;;;5038051;28;20044;-55
2021/12/03 17:53:43;;;;;;;4.28;1.90;;;;;;;;;;5036637;28;20045;-49
2021/12/03 17:56:13;;;;;;;4.07;2.00;;;;;;;;;;5035179;28;20059;-53
2021/12/03 17:58:41;;;;;;;3.88;1.88;;;;;;;;;;5041886;28;20060;-54
2021/12/03 18:01:12;;;;;;;3.35;1.80;;;;;;;;;;5037959;28;20053;-53
2021/12/03 18:03:45;;;;;;;3.67;1.88;;;;;;;;;;5039345;28;20040;-50
2021/12/03 18:06:48;;;;;;;6.50;2.28;;;;;;;;;;5059220;28;20049;-52
2021/12/03 18:12:20;;;;;;;4.45;2.33;;;;;;;;;;5055013;28;20045;-53
2021/12/03 18:45:26;;;;;;;3.70;1.90;;;;;;;;;;5057760;28;20033;-54
2021/12/03 18:50:59;;;;;;;4.03;1.90;;;;;;;;;;5042486;28;20055;-52
2021/12/03 18:53:46;;;;;;;4.38;1.70;;;;;;;;;;5032011;28;20057;-57
2021/12/03 18:56:17;;;;;;;3.95;2.10;;;;;;;;;;5038946;28;20056;-55
2021/12/03 18:58:46;;;;;;;3.97;2.17;;;;;;;;;;5036562;28;20064;-56
2021/12/03 19:01:13;;;;;;;;;;;;;;;;;;5041433;28;20051;-52
2021/12/03 19:03:54;;;;;;;4.55;2.40;;;;;;;;;;5035691;28;20343;-52
2021/12/03 19:06:25;;;;;;;3.72;1.98;;;;;;;;;;5041707;28;20387;-54
2021/12/03 19:08:54;;;;;;;3.65;1.80;;;;;;;;;;5038184;28;20040;-53
2021/12/03 19:11:23;;;;;;;4.70;2.13;;;;;;;;;;5041681;28;20056;-52
2021/12/03 19:13:52;;;;;;;4.38;2.15;;;;;;;;;;5042026;28;20044;-51
2021/12/03 19:16:22;;;;;;;4.00;2.05;;;;;;;;;;5038427;28;20061;-53
2021/12/03 19:18:50;;;;;;;5.15;1.90;;;;;;;;;;5041112;28;20049;-55
2021/12/03 19:21:19;;;;;;;5.22;2.20;;;;;;;;;;5035033;28;20111;-56
2021/12/03 19:23:46;;;;;;;4.55;2.10;;;;;;;;;;5057944;28;20041;-56
2021/12/03 19:26:13;;;;;;;4.72;1.80;;;;;;;;;;5035704;28;20044;-54
2021/12/03 19:28:42;;;;;;;3.70;2.33;;;;;;;;;;5041430;28;20098;-58
2021/12/03 19:31:10;;;;;;;;;;;;;;;;;;5037439;28;20025;-53
2021/12/03 19:33:40;;;;;;;5.13;2.10;;;;;;;;;;5036923;28;19924;-55
2021/12/03 19:36:07;;;;;;;5.32;2.72;;;;;;;;;;5035484;28;20037;-56
2021/12/03 19:38:36;;;;;;;5.65;2.65;;;;;;;;;;5038768;28;20360;-53
2021/12/03 19:41:11;;;;;;;5.43;2.47;;;;;;;;;;5055315;28;20073;-56
2021/12/03 19:43:41;;;;;;;3.90;2.20;;;;;;;;;;5041929;28;20055;-50
2021/12/03 19:46:10;;;;;;;3.63;2.28;;;;;;;;;;5037978;28;20043;-57
2021/12/03 19:48:40;;;;;;;;;;;;;;;;;;5040879;28;20052;-56
2021/12/03 19:51:13;;;;;;;3.03;1.77;;;;;;;;;;5050913;28;19925;-54
2021/12/03 19:53:44;;;;;;;5.13;2.15;;;;;;;;;;5057041;28;20057;-56
2021/12/03 19:56:12;;;;;;;4.65;2.05;;;;;;;;;;5035248;28;20057;-55
2021/12/03 19:58:39;;;;;;;4.83;2.03;;;;;;;;;;5038393;28;20108;-57
2021/12/03 20:01:05;;;;;;;4.88;2.10;;;;;;;;;;5034570;28;20037;-55
2021/12/03 20:03:34;;;;;;;3.72;1.85;;;;;;;;;;5037347;28;20093;-54
2021/12/03 20:06:03;;;;;;;3.13;1.75;;;;;;;;;;5035861;28;20049;-56
2021/12/03 20:08:33;;;;;;;5.45;2.40;;;;;;;;;;5040246;28;20045;-56
2021/12/03 20:11:03;;;;;;;4.07;2.20;;;;;;;;;;5042365;28;20066;-57
2021/12/03 20:13:29;;;;;;;6.50;2.50;;;;;;;;;;5036542;28;20046;-54
2021/12/03 20:16:06;;;;;;;5.47;2.53;;;;;;;;;;5044917;28;20045;-57
2021/12/03 20:18:36;;;;;;;5.70;2.40;;;;;;;;;;5054956;28;20040;-58
2021/12/03 20:21:05;;;;;;;4.18;2.33;;;;;;;;;;5058063;28;20046;-54
2021/12/03 20:23:37;;;;;;;6.40;3.08;;;;;;;;;;5034378;28;20049;-54
2021/12/03 20:28:52;;;;;;;6.65;2.30;;;;;;;;;;5029874;28;20053;-58
2021/12/03 20:31:21;;;;;;;5.82;2.42;;;;;;;;;;5040511;28;20045;-53
2021/12/03 20:34:08;;;;;;;5.43;2.72;;;;;;;;;;5034744;28;20126;-54
2021/12/03 20:36:42;;;;;;;5.32;2.67;;;;;;;;;;5039350;28;20038;-56
2021/12/03 20:39:15;;;;;;;4.40;2.22;;;;;;;;;;5032466;28;20213;-55
2021/12/03 20:41:46;;;;;;;6.10;2.08;;;;;;;;;;5038896;28;20049;-58
2021/12/03 20:47:15;;;;;;;4.28;2.40;;;;;;;;;;5036814;28;20053;-57
2021/12/03 20:49:54;;;;;;;4.22;1.98;;;;;;;;;;5038891;28;20052;-52
2021/12/03 20:58:14;;;;;;;3.90;2.15;;;;;;;;;;5039472;28;20119;-54
2021/12/03 21:08:57;;;;;;;4.22;2.28;;;;;;;;;;5037024;28;20053;-54
2021/12/03 21:11:29;;;;;;;3.67;1.90;;;;;;;;;;5040739;28;20195;-56
2021/12/03 21:13:59;;;;;;;5.93;2.22;;;;;;;;;;5032255;28;20040;-57
2021/12/03 21:16:48;;;;;;;4.53;2.53;;;;;;;;;;5037943;28;20057;-56